Time;durP1;ratioP1;P1;durP2;ratioP2;P2;SDS_P1;SDS_P2;PMS_P1;PMS_P2;Temp;Humidity;BMP_temperature;BMP_pressure;BME280_temperature;BME280_humidity;BME280_pressure;Samples;Min_cycle;Max_cycle;Signal;HPM_P1;HPM_P2
2022/09/08 00:02:26;;;;;;;2.83;0.60;;;19.90;99.90;;;;;;5116781;28;20525;-72
2022/09/08 00:04:53;;;;;;;1.80;0.60;;;19.80;99.90;;;;;;5116220;28;20460;-73
2022/09/08 00:07:21;;;;;;;1.00;0.70;;;19.90;99.90;;;;;;5116904;28;20939;-73
2022/09/08 00:09:48;;;;;;;3.53;0.70;;;19.80;99.90;;;;;;5116900;28;20456;-71
2022/09/08 00:12:15;;;;;;;1.83;0.60;;;19.90;99.90;;;;;;5117240;28;20444;-73
2022/09/08 00:14:42;;;;;;;1.00;0.63;;;19.90;99.90;;;;;;5113868;28;20473;-72
2022/09/08 00:17:09;;;;;;;1.00;0.70;;;19.80;99.90;;;;;;5114570;28;20437;-72
2022/09/08 00:19:36;;;;;;;0.97;0.60;;;19.90;99.90;;;;;;5114763;28;20528;-72
2022/09/08 00:22:03;;;;;;;2.70;0.60;;;19.80;96.50;;;;;;5115993;28;20480;-71
2022/09/08 00:24:31;;;;;;;0.90;0.73;;;19.90;99.90;;;;;;5114540;28;20595;-72
2022/09/08 00:26:58;;;;;;;2.63;0.60;;;19.80;99.90;;;;;;5113987;28;20508;-72
2022/09/08 00:29:25;;;;;;;1.70;0.70;;;20.00;99.90;;;;;;5112271;28;20456;-72
2022/09/08 00:31:52;;;;;;;0.90;0.70;;;20.00;99.90;;;;;;5115227;28;20758;-72
2022/09/08 00:34:19;;;;;;;2.90;0.67;;;19.90;99.90;;;;;;5114552;28;20520;-71
2022/09/08 00:36:46;;;;;;;2.60;0.67;;;19.90;99.90;;;;;;5114913;28;20948;-72
2022/09/08 00:39:15;;;;;;;0.90;0.63;;;19.90;99.90;;;;;;5115739;28;20535;-72
2022/09/08 00:41:43;;;;;;;0.80;0.60;;;20.00;99.90;;;;;;5116606;28;20484;-72
2022/09/08 00:44:39;;;;;;;0.90;0.70;;;20.10;99.90;;;;;;5115505;28;20539;-72
2022/09/08 00:47:12;;;;;;;1.67;0.60;;;20.30;85.10;;;;;;5116946;28;20567;-72
2022/09/08 00:49:39;;;;;;;1.23;0.70;;;20.10;96.80;;;;;;5114659;28;20543;-72
2022/09/08 00:52:06;;;;;;;1.00;0.60;;;20.10;96.50;;;;;;5116112;28;20470;-71
2022/09/08 00:54:33;;;;;;;1.07;0.60;;;20.20;83.80;;;;;;5114251;28;20903;-71
2022/09/08 00:57:02;;;;;;;0.67;0.50;;;20.30;80.40;;;;;;5116049;28;20656;-72
2022/09/08 00:59:29;;;;;;;0.87;0.60;;;20.40;67.30;;;;;;5114971;28;20452;-71
2022/09/08 01:01:56;;;;;;;0.90;0.60;;;20.40;68.20;;;;;;5116658;28;20484;-72
2022/09/08 01:04:24;;;;;;;0.80;0.60;;;20.30;85.10;;;;;;5115450;28;20448;-71
2022/09/08 01:12:54;;;;;;;1.10;0.70;;;20.00;99.90;;;;;;5116232;28;20514;-72
2022/09/08 01:15:23;;;;;;;0.90;0.70;;;19.90;99.90;;;;;;5117367;28;20499;-71
2022/09/08 01:17:52;;;;;;;0.80;0.60;;;19.70;99.90;;;;;;5119844;28;20914;-72
2022/09/08 01:20:23;;;;;;;1.00;0.70;;;19.60;99.90;;;;;;5120033;28;20448;-72
2022/09/08 01:23:19;;;;;;;3.00;0.80;;;19.40;99.90;;;;;;5119573;28;20474;-71
2022/09/08 01:26:06;;;;;;;1.07;0.70;;;19.40;99.90;;;;;;5118922;28;20836;-71
2022/09/08 01:28:37;;;;;;;0.90;0.70;;;19.40;99.90;;;;;;5118768;28;20505;-72
2022/09/08 01:31:06;;;;;;;0.83;0.60;;;19.40;99.90;;;;;;5119904;28;20474;-71
2022/09/08 01:33:33;;;;;;;1.00;0.70;;;19.40;99.90;;;;;;5118468;28;20495;-72
2022/09/08 01:36:06;;;;;;;1.47;0.60;;;19.50;99.90;;;;;;5119491;28;20487;-71
2022/09/08 01:38:33;;;;;;;1.30;0.70;;;19.50;99.90;;;;;;5118399;28;20817;-72
2022/09/08 01:41:00;;;;;;;0.90;0.60;;;19.60;99.90;;;;;;5120696;28;20507;-71
2022/09/08 01:43:27;;;;;;;1.10;0.80;;;19.50;99.90;;;;;;5118363;28;20799;-72
2022/09/08 01:45:57;;;;;;;1.00;0.70;;;19.50;99.90;;;;;;5119738;28;20884;-72
2022/09/08 01:48:24;;;;;;;1.00;0.77;;;19.60;99.90;;;;;;5117283;28;20788;-71
2022/09/08 01:50:51;;;;;;;1.40;0.70;;;19.70;99.90;;;;;;5119311;28;20646;-72
2022/09/08 01:53:19;;;;;;;0.90;0.60;;;19.60;99.90;;;;;;5119347;28;20480;-72
2022/09/08 01:55:46;;;;;;;0.80;0.70;;;19.70;99.90;;;;;;5118966;28;20449;-71
2022/09/08 01:58:13;;;;;;;2.80;0.80;;;19.60;99.90;;;;;;5117249;28;20528;-72
2022/09/08 02:00:41;;;;;;;0.90;0.60;;;19.60;99.90;;;;;;5118031;28;20539;-72
2022/09/08 02:03:11;;;;;;;1.00;0.70;;;19.60;99.90;;;;;;5116779;28;20437;-72
2022/09/08 02:05:39;;;;;;;1.07;0.80;;;19.50;99.90;;;;;;5116477;28;20452;-71
2022/09/08 02:08:06;;;;;;;0.80;0.63;;;19.40;99.90;;;;;;5119099;28;20774;-72
2022/09/08 02:10:34;;;;;;;1.27;0.80;;;19.30;99.90;;;;;;5118349;28;20543;-71
2022/09/08 02:13:00;;;;;;;1.03;0.60;;;19.30;99.90;;;;;;5118947;28;20535;-72
2022/09/08 02:15:28;;;;;;;1.20;0.70;;;19.30;99.90;;;;;;5116826;28;20615;-71
2022/09/08 02:17:55;;;;;;;1.83;0.60;;;19.40;99.90;;;;;;5118742;28;20440;-72
2022/09/08 02:20:23;;;;;;;2.53;0.77;;;19.30;99.90;;;;;;5117305;28;20543;-71
2022/09/08 02:22:50;;;;;;;1.57;0.60;;;19.20;99.90;;;;;;5119190;28;20933;-71
2022/09/08 02:25:17;;;;;;;0.67;0.50;;;19.20;99.90;;;;;;5117245;28;20555;-71
2022/09/08 02:27:44;;;;;;;0.80;0.40;;;19.10;99.90;;;;;;5117962;28;20745;-72
2022/09/08 02:30:12;;;;;;;0.70;0.50;;;19.00;99.90;;;;;;5117005;28;20480;-72
2022/09/08 02:32:39;;;;;;;0.63;0.40;;;18.90;99.90;;;;;;5118209;28;20531;-71
2022/09/08 02:35:07;;;;;;;0.73;0.43;;;18.90;99.90;;;;;;5117430;28;20848;-72
2022/09/08 02:37:35;;;;;;;0.70;0.40;;;18.90;99.90;;;;;;5117162;28;20444;-71
2022/09/08 02:40:03;;;;;;;0.90;0.40;;;18.80;99.90;;;;;;5115341;28;20510;-71
2022/09/08 02:42:30;;;;;;;0.57;0.40;;;18.80;99.90;;;;;;5117917;28;20555;-70
2022/09/08 02:44:58;;;;;;;0.70;0.50;;;18.70;99.90;;;;;;5117502;28;20479;-71
2022/09/08 02:47:24;;;;;;;0.57;0.40;;;18.70;99.90;;;;;;5118097;28;20936;-71
2022/09/08 02:49:51;;;;;;;4.50;0.30;;;18.80;99.90;;;;;;5116961;28;20560;-71
2022/09/08 02:52:18;;;;;;;0.50;0.40;;;18.80;99.90;;;;;;5117755;28;20526;-71
2022/09/08 02:54:46;;;;;;;1.30;0.30;;;18.70;99.90;;;;;;5118007;28;20846;-71
2022/09/08 02:57:13;;;;;;;0.57;0.40;;;18.70;99.90;;;;;;5117518;28;20475;-70
2022/09/08 02:59:40;;;;;;;0.60;0.30;;;18.70;99.90;;;;;;5118867;28;20544;-70
2022/09/08 03:02:07;;;;;;;1.17;0.37;;;18.80;99.90;;;;;;5118122;28;20543;-72
2022/09/08 03:04:34;;;;;;;1.27;0.30;;;18.70;99.90;;;;;;5117090;28;20444;-70
2022/09/08 03:07:01;;;;;;;0.63;0.30;;;18.70;99.90;;;;;;5117596;28;20579;-71
2022/09/08 03:09:27;;;;;;;0.90;0.30;;;18.70;99.90;;;;;;5116820;28;20460;-72
2022/09/08 03:11:56;;;;;;;0.80;0.30;;;18.80;99.90;;;;;;5116927;28;20445;-71
2022/09/08 03:14:23;;;;;;;1.13;0.30;;;18.80;99.90;;;;;;5116248;28;20453;-71
2022/09/08 03:16:50;;;;;;;0.60;0.40;;;18.80;99.90;;;;;;5116657;28;20502;-72
2022/09/08 03:19:17;;;;;;;0.50;0.30;;;18.70;99.90;;;;;;5115718;28;20449;-72
2022/09/08 03:21:44;;;;;;;1.20;1.07;;;18.60;99.90;;;;;;5117634;28;20793;-72
2022/09/08 03:24:11;;;;;;;1.07;0.30;;;18.60;99.90;;;;;;5116198;28;20552;-71
2022/09/08 03:26:38;;;;;;;0.40;0.30;;;18.60;99.90;;;;;;5117978;28;20527;-72
2022/09/08 03:29:06;;;;;;;0.40;0.20;;;18.50;99.90;;;;;;5117171;28;20547;-71
2022/09/08 03:31:35;;;;;;;0.60;0.30;;;18.50;99.90;;;;;;5117411;28;20472;-72
2022/09/08 03:34:02;;;;;;;0.40;0.20;;;18.60;99.90;;;;;;5116458;28;20526;-71
2022/09/08 03:36:29;;;;;;;0.60;0.30;;;18.60;99.90;;;;;;5117430;28;20448;-71
2022/09/08 03:38:55;;;;;;;0.40;0.20;;;18.80;99.90;;;;;;5116445;28;20847;-71
2022/09/08 03:41:22;;;;;;;0.40;0.30;;;18.70;99.90;;;;;;5118687;28;20445;-72
2022/09/08 03:43:51;;;;;;;0.70;0.30;;;18.60;99.90;;;;;;5116800;28;20543;-71
2022/09/08 03:46:19;;;;;;;0.40;0.20;;;18.40;99.90;;;;;;5120205;28;20948;-71
2022/09/08 03:48:46;;;;;;;0.50;0.30;;;18.40;99.90;;;;;;5119207;28;20575;-71
2022/09/08 03:51:15;;;;;;;0.40;0.27;;;18.40;99.90;;;;;;5120143;28;20515;-71
2022/09/08 03:53:43;;;;;;;0.40;0.20;;;18.30;99.90;;;;;;5118572;28;20453;-70
2022/09/08 03:56:11;;;;;;;0.40;0.27;;;18.30;99.90;;;;;;5119055;28;20543;-70
2022/09/08 03:58:42;;;;;;;0.40;0.27;;;18.30;99.90;;;;;;5116452;28;20464;-71
2022/09/08 04:01:10;;;;;;;0.40;0.20;;;18.50;99.90;;;;;;5117413;28;20444;-71
2022/09/08 04:03:38;;;;;;;0.50;0.23;;;18.30;99.90;;;;;;5115765;28;20812;-71
2022/09/08 04:06:06;;;;;;;0.50;0.30;;;18.30;99.90;;;;;;5117320;28;20540;-71
2022/09/08 04:08:33;;;;;;;0.50;0.30;;;18.30;99.90;;;;;;5115537;28;20580;-72
2022/09/08 04:11:00;;;;;;;0.50;0.30;;;18.20;99.90;;;;;;5115758;28;20447;-71
2022/09/08 04:13:27;;;;;;;0.50;0.30;;;18.20;99.90;;;;;;5115042;28;20505;-71
2022/09/08 04:15:54;;;;;;;0.40;0.20;;;18.20;99.90;;;;;;5115435;28;20476;-71
2022/09/08 04:18:21;;;;;;;0.40;0.30;;;18.20;99.90;;;;;;5113683;28;20516;-71
2022/09/08 04:20:57;;;;;;;0.40;0.20;;;18.20;99.90;;;;;;5113272;28;20539;-71
2022/09/08 04:23:24;;;;;;;0.40;0.20;;;18.10;99.90;;;;;;5112336;28;20450;-71
2022/09/08 04:25:59;;;;;;;0.40;0.20;;;18.20;99.90;;;;;;5114483;28;21106;-72
2022/09/08 04:28:26;;;;;;;0.60;0.30;;;18.10;99.90;;;;;;5114234;28;20553;-71
2022/09/08 04:30:53;;;;;;;0.80;0.23;;;18.00;99.90;;;;;;5115816;28;20528;-71
2022/09/08 04:33:20;;;;;;;0.40;0.20;;;18.00;99.90;;;;;;5115207;28;20543;-70
2022/09/08 04:35:47;;;;;;;0.47;0.20;;;18.00;99.90;;;;;;5116291;28;20472;-70
2022/09/08 04:38:15;;;;;;;0.87;0.20;;;18.00;99.90;;;;;;5112781;28;20543;-71
2022/09/08 04:40:43;;;;;;;0.37;0.20;;;18.10;99.90;;;;;;5114761;28;20444;-71
2022/09/08 04:43:10;;;;;;;0.40;0.20;;;18.20;99.90;;;;;;5113470;28;20451;-71
2022/09/08 04:45:37;;;;;;;0.30;0.20;;;18.20;99.90;;;;;;5115099;28;20445;-72
2022/09/08 04:48:04;;;;;;;0.37;0.20;;;18.20;99.90;;;;;;5115019;28;20508;-71
2022/09/08 04:50:31;;;;;;;0.40;0.20;;;18.20;99.90;;;;;;5118559;28;20558;-71
2022/09/08 04:52:58;;;;;;;0.30;0.20;;;18.00;99.90;;;;;;5119582;28;20548;-72
2022/09/08 04:55:26;;;;;;;0.40;0.20;;;18.10;99.90;;;;;;5119485;28;20453;-72
2022/09/08 04:57:53;;;;;;;0.30;0.20;;;18.10;99.90;;;;;;5126111;27;20955;-72
2022/09/08 05:00:20;;;;;;;0.40;0.20;;;18.20;99.90;;;;;;5139360;27;20538;-72
2022/09/08 05:02:48;;;;;;;0.30;0.10;;;18.20;99.90;;;;;;5139729;27;20450;-71
2022/09/08 05:05:16;;;;;;;0.70;0.20;;;18.10;99.90;;;;;;5138871;27;20512;-72
2022/09/08 05:07:42;;;;;;;0.30;0.20;;;18.00;99.90;;;;;;5139330;27;20471;-71
2022/09/08 05:10:10;;;;;;;0.40;0.20;;;18.00;99.90;;;;;;5138699;27;20460;-72
2022/09/08 05:12:38;;;;;;;0.80;0.30;;;18.10;99.90;;;;;;5138557;27;20547;-73
2022/09/08 05:15:06;;;;;;;1.53;0.30;;;18.30;99.90;;;;;;5138581;27;20863;-72
2022/09/08 05:17:33;;;;;;;0.40;0.30;;;18.30;99.90;;;;;;5138798;27;20439;-72
2022/09/08 05:20:00;;;;;;;0.40;0.20;;;18.20;99.90;;;;;;5138056;27;20490;-72
2022/09/08 05:22:27;;;;;;;0.40;0.20;;;18.20;99.90;;;;;;5138472;27;20448;-72
2022/09/08 05:24:54;;;;;;;0.40;0.20;;;18.20;99.90;;;;;;5137558;27;20832;-72
2022/09/08 05:27:20;;;;;;;0.50;0.27;;;18.20;99.90;;;;;;5138974;27;20918;-71
2022/09/08 05:29:49;;;;;;;0.30;0.20;;;18.10;99.90;;;;;;5138530;27;20546;-73
2022/09/08 05:32:17;;;;;;;0.40;0.20;;;18.20;99.90;;;;;;5140158;27;20509;-72
2022/09/08 05:34:44;;;;;;;0.30;0.20;;;18.20;99.90;;;;;;5137662;27;20747;-71
2022/09/08 05:37:10;;;;;;;0.50;0.30;;;18.30;99.90;;;;;;5138716;27;20827;-71
2022/09/08 05:39:38;;;;;;;0.40;0.30;;;18.20;99.90;;;;;;5136757;27;20451;-71
2022/09/08 05:42:05;;;;;;;0.40;0.20;;;18.10;99.90;;;;;;5138263;27;20454;-71
2022/09/08 05:44:34;;;;;;;0.37;0.20;;;18.00;99.90;;;;;;5137294;27;20551;-71
2022/09/08 05:47:03;;;;;;;0.40;0.20;;;18.00;99.90;;;;;;5138980;27;20468;-73
2022/09/08 05:49:31;;;;;;;0.43;0.30;;;18.10;99.90;;;;;;5138099;27;20578;-72
2022/09/08 05:51:58;;;;;;;0.40;0.20;;;18.10;99.90;;;;;;5138613;27;20813;-72
2022/09/08 05:54:26;;;;;;;0.50;0.20;;;18.10;99.90;;;;;;5137760;27;20452;-72
2022/09/08 05:56:53;;;;;;;0.40;0.20;;;18.30;99.90;;;;;;5136655;27;20448;-72
2022/09/08 05:59:19;;;;;;;0.30;0.20;;;18.30;99.90;;;;;;5135158;27;20479;-70
2022/09/08 06:01:46;;;;;;;0.40;0.20;;;18.30;99.90;;;;;;5135895;27;20546;-71
2022/09/08 06:04:15;;;;;;;0.87;0.20;;;18.20;99.90;;;;;;5136545;27;20483;-70
2022/09/08 06:06:42;;;;;;;0.60;0.23;;;18.20;99.90;;;;;;5134897;27;20814;-71
2022/09/08 06:09:10;;;;;;;0.40;0.20;;;18.40;99.90;;;;;;5137885;27;20522;-70
2022/09/08 06:11:37;;;;;;;0.40;0.20;;;18.30;99.90;;;;;;5138209;27;20451;-73
2022/09/08 06:14:05;;;;;;;0.40;0.20;;;18.20;99.90;;;;;;5137483;27;20562;-73
2022/09/08 06:16:33;;;;;;;0.37;0.20;;;18.10;99.90;;;;;;5138352;27;20566;-72
2022/09/08 06:19:01;;;;;;;0.50;0.20;;;18.20;99.90;;;;;;5136659;27;20559;-72
2022/09/08 06:21:32;;;;;;;0.40;0.20;;;18.20;99.90;;;;;;5137127;27;20452;-72
2022/09/08 06:24:00;;;;;;;0.50;0.20;;;18.30;99.90;;;;;;5137769;27;20448;-72
2022/09/08 06:26:46;;;;;;;0.50;0.20;;;18.30;99.90;;;;;;5137982;27;20799;-71
2022/09/08 06:29:18;;;;;;;0.80;0.17;;;18.30;99.90;;;;;;5136326;27;20481;-71
2022/09/08 06:31:49;;;;;;;0.40;0.20;;;18.10;99.90;;;;;;5137593;27;20438;-71
2022/09/08 06:34:24;;;;;;;0.30;0.10;;;18.00;99.90;;;;;;5134908;27;20546;-71
2022/09/08 06:36:56;;;;;;;0.60;0.20;;;17.90;99.90;;;;;;5137021;27;20471;-72
2022/09/08 06:39:27;;;;;;;0.40;0.10;;;17.70;99.90;;;;;;5133300;27;20443;-71
2022/09/08 06:42:00;;;;;;;0.37;0.20;;;17.60;99.90;;;;;;5136251;27;20472;-72
2022/09/08 06:44:33;;;;;;;0.43;0.30;;;17.60;99.90;;;;;;5134654;27;20474;-71
2022/09/08 06:47:01;;;;;;;0.60;0.20;;;17.80;99.90;;;;;;5129876;27;20523;-72
2022/09/08 06:49:29;;;;;;;0.40;0.20;;;17.80;99.90;;;;;;5134874;27;20874;-71
2022/09/08 06:52:13;;;;;;;0.30;0.10;;;17.80;99.90;;;;;;5136065;27;20504;-71
2022/09/08 06:54:46;;;;;;;0.47;0.20;;;17.70;96.90;;;;;;5134800;27;20462;-71
2022/09/08 06:57:25;;;;;;;0.40;0.20;;;17.70;99.90;;;;;;5136890;27;20472;-71
2022/09/08 07:00:00;;;;;;;0.60;0.20;;;17.60;99.90;;;;;;5136924;27;20832;-72
2022/09/08 07:02:51;;;;;;;0.97;0.10;;;17.60;99.90;;;;;;5136542;27;20522;-71
2022/09/08 07:05:37;;;;;;;0.40;0.20;;;17.60;99.90;;;;;;5121801;27;20531;-70
2022/09/08 07:08:15;;;;;;;0.37;0.20;;;17.60;99.90;;;;;;5136200;27;20467;-72
2022/09/08 07:10:47;;;;;;;0.87;0.10;;;17.70;98.90;;;;;;5136110;27;20527;-72
2022/09/08 07:13:22;;;;;;;1.70;0.20;;;17.70;99.90;;;;;;5135857;27;20797;-70
2022/09/08 07:16:01;;;;;;;0.40;0.20;;;17.60;99.90;;;;;;5124264;27;20574;-71
2022/09/08 07:18:34;;;;;;;0.30;0.20;;;17.60;99.90;;;;;;5115589;28;21210;-71
2022/09/08 07:21:12;;;;;;;0.43;0.20;;;17.80;99.90;;;;;;5114807;28;20445;-73
2022/09/08 07:23:43;;;;;;;0.40;0.20;;;18.00;99.30;;;;;;5116642;28;20459;-72
2022/09/08 07:26:16;;;;;;;0.47;0.20;;;18.00;92.80;;;;;;5115819;28;20531;-73
2022/09/08 07:28:46;;;;;;;0.40;0.10;;;18.00;90.00;;;;;;5116217;28;20512;-72
2022/09/08 07:31:19;;;;;;;0.40;0.20;;;18.10;99.90;;;;;;5114625;28;20520;-70
2022/09/08 07:33:48;;;;;;;0.40;0.20;;;18.20;68.40;;;;;;5114537;28;20548;-71
2022/09/08 07:36:26;;;;;;;0.40;0.20;;;18.40;44.80;;;;;;5114021;28;20534;-70
2022/09/08 07:38:55;;;;;;;0.40;0.30;;;18.50;15.50;;;;;;5113058;27;20440;-71
2022/09/08 07:41:29;;;;;;;0.30;0.10;;;18.40;18.40;;;;;;5113240;28;20815;-71
2022/09/08 07:44:00;;;;;;;1.20;0.23;;;18.50;41.20;;;;;;5110907;28;20453;-71
2022/09/08 07:46:46;;;;;;;0.33;0.20;;;18.60;1.00;;;;;;5106841;28;20966;-70
2022/09/08 07:49:22;;;;;;;1.13;0.80;;;18.70;1.00;;;;;;5113255;28;20474;-70
2022/09/08 07:51:58;;;;;;;0.37;0.20;;;19.00;1.00;;;;;;5112600;28;20872;-70
2022/09/08 07:54:50;;;;;;;0.47;0.20;;;18.80;1.00;;;;;;5111475;28;20978;-70
2022/09/08 07:57:38;;;;;;;0.40;0.20;;;19.00;1.00;;;;;;5111940;28;20435;-70
2022/09/08 08:00:11;;;;;;;0.40;0.20;;;19.00;1.00;;;;;;5112615;28;20544;-70
2022/09/08 08:03:05;;;;;;;0.30;0.10;;;19.00;1.00;;;;;;5112945;28;20532;-69
2022/09/08 08:05:39;;;;;;;0.30;0.10;;;18.90;1.00;;;;;;5106016;28;20840;-70
2022/09/08 08:08:15;;;;;;;0.33;0.17;;;18.90;1.00;;;;;;5111734;28;20528;-69
2022/09/08 08:10:55;;;;;;;0.60;0.20;;;19.10;1.00;;;;;;5111712;28;20531;-69
2022/09/08 08:13:46;;;;;;;0.50;0.20;;;19.20;1.00;;;;;;5111784;28;20794;-69
2022/09/08 08:16:21;;;;;;;0.30;0.10;;;19.30;1.00;;;;;;5127378;27;20952;-70
2022/09/08 08:19:02;;;;;;;0.73;0.10;;;19.40;1.00;;;;;;5131689;27;20447;-69
2022/09/08 08:21:35;;;;;;;0.57;0.20;;;19.30;1.00;;;;;;5134951;27;20451;-70
2022/09/08 08:24:14;;;;;;;0.50;0.20;;;19.40;1.00;;;;;;5131851;27;20448;-71
2022/09/08 08:26:49;;;;;;;0.37;0.20;;;19.50;1.00;;;;;;5135940;27;20546;-73
2022/09/08 08:29:39;;;;;;;0.30;0.20;;;19.40;1.00;;;;;;5129300;27;20578;-70
2022/09/08 08:32:11;;;;;;;0.80;0.20;;;19.20;1.00;;;;;;5134005;27;20531;-69
2022/09/08 08:34:46;;;;;;;0.30;0.17;;;19.20;1.00;;;;;;5131463;27;20875;-69
2022/09/08 08:37:18;;;;;;;3.70;0.30;;;19.50;1.00;;;;;;5133020;27;20537;-71
2022/09/08 08:39:48;;;;;;;0.50;0.20;;;19.50;1.00;;;;;;5130912;27;20555;-71
2022/09/08 08:42:33;;;;;;;0.60;0.30;;;19.60;1.00;;;;;;5131971;27;20452;-71
2022/09/08 08:45:17;;;;;;;0.40;0.20;;;19.70;1.00;;;;;;5132802;27;20508;-71
2022/09/08 08:48:20;;;;;;;0.40;0.20;;;19.80;99.90;;;;;;5124945;27;20436;-71
2022/09/08 08:51:06;;;;;;;0.30;0.20;;;19.80;1.00;;;;;;5131220;28;20468;-71
2022/09/08 08:54:11;;;;;;;0.30;0.10;;;19.90;93.70;;;;;;5132941;27;20455;-72
2022/09/08 08:56:43;;;;;;;0.40;0.20;;;20.20;44.60;;;;;;5114078;27;20502;-72
2022/09/08 08:59:27;;;;;;;0.63;0.30;;;20.40;1.00;;;;;;5131866;27;20448;-72
2022/09/08 09:02:11;;;;;;;1.03;0.20;;;20.60;99.90;;;;;;5129911;27;20476;-72
2022/09/08 09:04:53;;;;;;;0.60;0.17;;;20.70;1.00;;;;;;5129347;27;21116;-71
2022/09/08 09:07:58;;;;;;;0.73;0.27;;;20.70;99.90;;;;;;5131241;28;20538;-71
2022/09/08 09:10:59;;;;;;;0.40;0.20;;;20.70;99.90;;;;;;5113816;28;20854;-71
2022/09/08 09:13:48;;;;;;;0.40;0.20;;;20.60;1.00;;;;;;5097417;28;20440;-71
2022/09/08 09:16:49;;;;;;;0.73;0.40;;;20.70;1.00;;;;;;5113808;28;20537;-72
2022/09/08 09:19:36;;;;;;;0.40;0.20;;;20.70;1.00;;;;;;5118829;28;21424;-71
2022/09/08 09:22:14;;;;;;;0.90;0.60;;;20.80;99.90;;;;;;5132347;27;20447;-70
2022/09/08 09:24:59;;;;;;;0.60;0.23;;;20.80;65.00;;;;;;5132506;27;20459;-71
2022/09/08 09:27:38;;;;;;;0.47;0.30;;;20.60;99.90;;;;;;5134697;28;20539;-71
2022/09/08 09:30:19;;;;;;;0.50;0.20;;;20.50;1.00;;;;;;5123562;27;20453;-71
2022/09/08 09:33:31;;;;;;;0.33;0.10;;;20.40;19.80;;;;;;5130434;28;20210;-72
2022/09/08 09:36:34;;;;;;;0.97;0.40;;;20.60;1.00;;;;;;5114021;27;21114;-73
2022/09/08 09:39:32;;;;;;;0.80;0.30;;;20.70;99.90;;;;;;5135912;27;20493;-71
2022/09/08 09:42:18;;;;;;;0.60;0.30;;;20.60;99.90;;;;;;5136600;27;20530;-72
2022/09/08 09:45:04;;;;;;;0.80;0.37;;;20.70;99.90;;;;;;5130681;27;20558;-71
2022/09/08 09:47:56;;;;;;;0.50;0.30;;;20.90;99.90;;;;;;5137181;27;20900;-72
2022/09/08 09:50:59;;;;;;;0.60;0.33;;;21.10;1.00;;;;;;5134985;27;20661;-73
2022/09/08 09:53:45;;;;;;;0.50;0.30;;;21.20;1.00;;;;;;5107889;27;20829;-72
2022/09/08 09:56:49;;;;;;;1.83;0.30;;;21.20;1.00;;;;;;5135222;27;20867;-71
2022/09/08 09:59:55;;;;;;;0.50;0.30;;;21.20;1.00;;;;;;5116924;28;20531;-72
2022/09/08 10:02:59;;;;;;;0.50;0.30;;;21.40;1.00;;;;;;5133436;27;20496;-70
2022/09/08 10:05:44;;;;;;;2.20;0.30;;;21.70;99.90;;;;;;5116304;28;20497;-71
2022/09/08 10:09:00;;;;;;;0.30;0.20;;;22.00;99.90;;;;;;5120500;27;20431;-71
2022/09/08 10:11:47;;;;;;;0.60;0.20;;;22.60;1.00;;;;;;5133402;27;20440;-72
2022/09/08 10:14:51;;;;;;;0.30;0.20;;;22.80;1.00;;;;;;5133953;27;20539;-72
2022/09/08 10:17:49;;;;;;;0.40;0.17;;;23.00;1.00;;;;;;5031092;28;20436;-72
2022/09/08 10:20:47;;;;;;;0.30;0.20;;;22.90;1.00;;;;;;5100159;27;20532;-71
2022/09/08 10:24:00;;;;;;;0.47;0.20;;;22.60;1.00;;;;;;5134041;27;20502;-70
2022/09/08 10:26:52;;;;;;;0.60;0.20;;;22.50;1.00;;;;;;5137175;27;20440;-71
2022/09/08 10:30:03;;;;;;;0.30;0.20;;;22.50;1.00;;;;;;5097174;27;20522;-73
2022/09/08 10:33:02;;;;;;;0.53;0.20;;;22.40;1.00;;;;;;5135315;27;20541;-70
2022/09/08 10:35:44;;;;;;;0.30;0.20;;;22.40;1.00;;;;;;5085467;27;20542;-73
2022/09/08 10:38:29;;;;;;;0.50;0.30;;;22.50;1.00;;;;;;5132838;27;20530;-72
2022/09/08 10:41:17;;;;;;;0.40;0.20;;;22.60;1.00;;;;;;5132934;27;20472;-72
2022/09/08 10:44:07;;;;;;;2.50;0.20;;;22.40;1.00;;;;;;5136035;27;20519;-72
2022/09/08 10:47:04;;;;;;;1.00;0.60;;;22.40;1.00;;;;;;5130240;27;20482;-72
2022/09/08 10:49:55;;;;;;;0.73;0.30;;;22.40;1.00;;;;;;5113468;28;20542;-73
2022/09/08 10:52:44;;;;;;;0.90;0.20;;;22.40;1.00;;;;;;5115684;28;20440;-73
2022/09/08 10:55:36;;;;;;;0.77;0.20;;;22.30;1.00;;;;;;5113970;28;20891;-73
2022/09/08 10:58:47;;;;;;;0.37;0.20;;;22.40;1.00;;;;;;5105199;28;20531;-73
2022/09/08 11:01:40;;;;;;;0.70;0.30;;;22.50;1.00;;;;;;5110532;27;20761;-73
2022/09/08 11:04:42;;;;;;;1.07;0.20;;;22.40;1.00;;;;;;5135786;27;20450;-73
2022/09/08 11:07:29;;;;;;;0.30;0.20;;;22.30;1.00;;;;;;5135556;27;20842;-73
2022/09/08 11:10:08;;;;;;;0.40;0.20;;;22.30;1.00;;;;;;5135910;27;20515;-74
2022/09/08 11:12:53;;;;;;;0.40;0.20;;;22.40;1.00;;;;;;5136986;27;20515;-74
2022/09/08 11:15:57;;;;;;;0.90;0.20;;;22.40;1.00;;;;;;5130426;27;20479;-72
2022/09/08 11:18:37;;;;;;;0.30;0.10;;;22.50;1.00;;;;;;5133676;27;20455;-71
2022/09/08 11:21:08;;;;;;;0.77;0.20;;;22.80;1.00;;;;;;5137491;27;20454;-72
2022/09/08 11:23:50;;;;;;;0.50;0.20;;;22.90;1.00;;;;;;5135857;27;20859;-74
2022/09/08 11:26:43;;;;;;;0.30;0.20;;;22.80;1.00;;;;;;5134467;27;20483;-72
2022/09/08 11:29:14;;;;;;;1.60;0.20;;;22.90;1.00;;;;;;5132718;27;20821;-72
2022/09/08 11:31:51;;;;;;;4.07;3.67;;;23.30;1.00;;;;;;5134498;27;20501;-72
2022/09/08 11:34:48;;;;;;;0.53;0.30;;;23.30;1.00;;;;;;5134619;27;20939;-73
2022/09/08 11:37:56;;;;;;;0.50;0.20;;;23.50;1.00;;;;;;5132763;27;20448;-71
2022/09/08 11:40:50;;;;;;;0.60;0.40;;;23.60;1.00;;;;;;5136474;27;20464;-72
2022/09/08 11:43:31;;;;;;;0.40;0.20;;;23.40;1.00;;;;;;5133433;27;20546;-72
2022/09/08 11:46:14;;;;;;;0.40;0.20;;;23.20;1.00;;;;;;5134188;27;20550;-71
2022/09/08 11:49:05;;;;;;;0.50;0.20;;;23.00;1.00;;;;;;5134106;27;20501;-73
2022/09/08 11:51:52;;;;;;;1.57;0.20;;;23.00;1.00;;;;;;5132019;27;20474;-72
2022/09/08 11:54:43;;;;;;;0.40;0.20;;;22.80;1.00;;;;;;5134080;27;20538;-73
2022/09/08 11:57:33;;;;;;;0.30;0.17;;;22.30;1.00;;;;;;5130967;27;20532;-74
2022/09/08 12:00:19;;;;;;;1.60;0.30;;;22.00;1.00;;;;;;5129176;27;20448;-73
2022/09/08 12:03:19;;;;;;;0.30;0.20;;;22.10;1.00;;;;;;5125778;27;20483;-72
2022/09/08 12:06:16;;;;;;;1.73;0.27;;;22.40;1.00;;;;;;5134962;27;20439;-72
2022/09/08 12:08:57;;;;;;;0.40;0.30;;;22.50;1.00;;;;;;5110729;27;20466;-71
2022/09/08 12:11:45;;;;;;;1.20;0.40;;;22.40;1.00;;;;;;5135661;27;20566;-73
2022/09/08 12:14:23;;;;;;;0.30;0.20;;;22.50;1.00;;;;;;5133784;27;20821;-71
2022/09/08 12:16:57;;;;;;;2.13;0.23;;;22.40;1.00;;;;;;5114300;27;20578;-72
2022/09/08 12:19:43;;;;;;;0.30;0.20;;;22.30;1.00;;;;;;5114588;28;20499;-72
2022/09/08 12:22:22;;;;;;;0.73;0.20;;;22.40;1.00;;;;;;5114203;27;20987;-72
2022/09/08 12:25:07;;;;;;;0.47;0.20;;;22.30;1.00;;;;;;5132045;27;20440;-72
2022/09/08 12:27:50;;;;;;;0.97;0.30;;;22.20;1.00;;;;;;5129559;27;20451;-71
2022/09/08 12:30:21;;;;;;;0.50;0.20;;;22.20;1.00;;;;;;5122168;28;20483;-72
2022/09/08 12:33:15;;;;;;;0.40;0.27;;;22.10;1.00;;;;;;5126198;28;20543;-73
2022/09/08 12:35:50;;;;;;;1.13;0.40;;;21.80;1.00;;;;;;5113520;28;20468;-73
2022/09/08 12:39:02;;;;;;;0.50;0.30;;;21.80;1.00;;;;;;5116774;28;20778;-72
2022/09/08 12:41:49;;;;;;;1.70;0.60;;;21.80;1.00;;;;;;5026721;28;20455;-71
2022/09/08 12:44:32;;;;;;;0.50;0.30;;;21.70;1.00;;;;;;5134225;28;20531;-72
2022/09/08 12:47:13;;;;;;;0.33;0.20;;;22.10;25.90;;;;;;5134237;28;20546;-72
2022/09/08 12:49:56;;;;;;;0.40;0.20;;;22.70;1.00;;;;;;5116368;28;20474;-72
2022/09/08 12:52:47;;;;;;;0.60;0.30;;;23.10;1.00;;;;;;5131435;28;20558;-71
2022/09/08 12:55:25;;;;;;;0.40;0.20;;;23.20;1.00;;;;;;5121208;28;20428;-72
2022/09/08 12:57:55;;;;;;;1.23;0.20;;;23.60;1.00;;;;;;5117440;28;20809;-72
2022/09/08 13:00:27;;;;;;;0.50;0.20;;;23.70;1.00;;;;;;5119329;28;20948;-71
2022/09/08 13:03:29;;;;;;;3.53;0.20;;;23.60;1.00;;;;;;5111393;28;20452;-71
2022/09/08 13:06:24;;;;;;;0.47;0.20;;;23.00;1.00;;;;;;5112353;28;20490;-71
2022/09/08 13:08:58;;;;;;;0.63;0.20;;;23.10;1.00;;;;;;5111719;28;20531;-72
2022/09/08 13:11:48;;;;;;;0.47;0.20;;;23.00;1.00;;;;;;5118318;28;20472;-72
2022/09/08 13:14:26;;;;;;;0.30;0.20;;;23.00;1.00;;;;;;5118029;28;20834;-71
2022/09/08 13:17:01;;;;;;;0.40;0.20;;;23.20;1.00;;;;;;5134576;27;20582;-71
2022/09/08 13:19:31;;;;;;;0.30;0.13;;;23.40;1.00;;;;;;5138980;27;20533;-71
2022/09/08 13:22:19;;;;;;;0.37;0.20;;;23.60;1.00;;;;;;5139093;27;20455;-71
2022/09/08 13:24:57;;;;;;;0.97;0.20;;;23.50;1.00;;;;;;5139098;27;20530;-71
2022/09/08 13:27:35;;;;;;;0.40;0.37;;;23.50;1.00;;;;;;5138852;27;20461;-71
2022/09/08 13:30:14;;;;;;;0.40;0.20;;;23.00;1.00;;;;;;5135575;27;20570;-71
2022/09/08 13:33:13;;;;;;;0.83;0.20;;;22.90;1.00;;;;;;5134718;27;20910;-71
2022/09/08 13:35:58;;;;;;;0.50;0.20;;;22.90;1.00;;;;;;5103348;27;20447;-72
2022/09/08 13:38:42;;;;;;;0.80;0.20;;;22.80;1.00;;;;;;5131724;27;20741;-70
2022/09/08 13:41:20;;;;;;;1.23;0.27;;;23.10;1.00;;;;;;5123479;27;20534;-70
2022/09/08 13:44:20;;;;;;;0.50;0.20;;;23.10;1.00;;;;;;5135616;27;20465;-70
2022/09/08 13:47:13;;;;;;;0.90;0.20;;;23.30;1.00;;;;;;5129389;27;20550;-69